Beso — WDB7855 — position and weather

sailwx.info

Track history (hours):
 
Tides and Currents Weather Stations Pressure Air Temp Water Temp Dewpoint Dewpoint Depression Visibility Wind Speed Wind Dir Waves Ship Positions

Beso

Owner: Marsh, Richard C, Santa Barbara, CA. More information available from US FCC via Universal Licensing System and Coast Guard Vessel Documentation Center.

Last reported at 2017-Oct-17 18:04 UTC. Time now 2017-Oct-17 18:47 UTC.
Position N 34°24' W 119°42'.

Length 12 m.

Type: Pleasure craft. MMSI: 366948820.

Date/timePositionNaut miles runAvg speedWind from/ knotsBaromVisibWave heightAir tempDewpointWater temp
2017-Oct-17 18:04N 34°24' W 119°42'0 0.0
2017-Oct-17 16:36N 34°24' W 119°42'0 0.0
2017-Oct-17 12:12N 34°24' W 119°42'0 0.0
2017-Oct-16 14:41N 34°24' W 119°42'0 0.0
2017-Oct-16 10:41N 34°24' W 119°42'0 0.0
2017-Oct-16 07:32N 34°24' W 119°42'0 0.0
2017-Oct-16 06:08N 34°24' W 119°42'0 0.0
2017-Oct-16 03:41N 34°24' W 119°42'0 0.0
2017-Oct-16 03:26N 34°24' W 119°42'0 0.0
2017-Oct-15 22:09N 34°24' W 119°42'0 0.0
2017-Oct-15 21:48N 34°24' W 119°42'0 0.0
2017-Oct-15 18:56N 34°24' W 119°42'0 0.0
2017-Oct-15 18:09N 34°24' W 119°42'0 0.0
2017-Oct-15 15:57N 34°24' W 119°42'0 0.0
2017-Oct-15 03:36N 34°24' W 119°42'0 0.0
2017-Oct-15 03:21N 34°24' W 119°42'0 0.0
2017-Oct-14 19:13N 34°24' W 119°42'0 0.0
2017-Oct-14 16:18N 34°24' W 119°42'0 0.0
2017-Oct-13 10:41N 34°24' W 119°42'0 0.0
2017-Oct-13 08:10N 34°24' W 119°42'0 0.0
2017-Oct-13 08:00N 34°24' W 119°42'0 0.0
2017-Oct-13 07:21N 34°24' W 119°42'0 0.0
2017-Oct-13 06:52N 34°24' W 119°42'0 0.0
2017-Oct-13 06:15N 34°24' W 119°42'0 0.0
2017-Oct-13 05:54N 34°24' W 119°42'0 0.0
2017-Oct-13 05:17N 34°24' W 119°42'0 0.0
2017-Oct-13 04:48N 34°24' W 119°42'0 0.0
2017-Oct-12 08:57N 34°24' W 119°42'0 0.0
2017-Oct-12 05:28N 34°24' W 119°42'0 0.0
2017-Oct-12 04:58N 34°24' W 119°42'0 0.0
2017-Oct-12 03:09N 34°24' W 119°42'0 0.0
2017-Oct-12 03:00N 34°24' W 119°42'0 0.0
2017-Oct-12 00:57N 34°24' W 119°42'0 0.0
2017-Oct-11 17:57N 34°24' W 119°42'0 0.0
2017-Oct-11 17:30N 34°24' W 119°42'0 0.0
2017-Oct-10 14:42N 34°24' W 119°42'0 0.0
2017-Oct-10 10:16N 34°24' W 119°42'0 0.0
2017-Oct-10 05:45N 34°24' W 119°42'0 0.0
2017-Oct-10 03:42N 34°24' W 119°42'0 0.0
2017-Oct-10 03:12N 34°24' W 119°42'0 0.0
2017-Oct-10 00:17N 34°24' W 119°42'1 0.1
2017-Oct-09 17:07N 34°24' W 119°41'1 6.6
2017-Oct-09 16:55N 34°23' W 119°40'3 6.6
2017-Oct-09 16:30N 34°20' W 119°39'4 7.0
2017-Oct-09 15:56N 34°16' W 119°37'3 7.0
2017-Oct-09 15:27N 34°13' W 119°36'3 6.8
2017-Oct-09 14:59N 34°10' W 119°35'3 6.7
2017-Oct-09 14:30N 34°07' W 119°33'7 0.6
2017-Oct-09 02:17N 34°00' W 119°31'2 6.4
2017-Oct-09 01:58N 33°59' W 119°29'4 6.5
2017-Oct-09 01:24N 33°57' W 119°25'3 6.3
2017-Oct-09 00:56N 33°56' W 119°22'3 5.9
2017-Oct-09 00:30N 33°54' W 119°19'3 6.8
2017-Oct-09 00:00N 33°52' W 119°16'4 7.2
2017-Oct-08 23:24N 33°50' W 119°12'3 7.1
2017-Oct-08 22:59N 33°49' W 119°09'4 7.3
2017-Oct-08 22:30N 33°47' W 119°05'33 6.9
2017-Oct-08 17:44N 33°29' W 118°32'2 7.2
2017-Oct-08 17:29N 33°28' W 118°30'4 7.4
2017-Oct-08 17:00N 33°26' W 118°26'3 6.7
2017-Oct-08 16:30N 33°25' W 118°23'4 6.4
2017-Oct-08 15:49N 33°21' W 118°20'1 1.6
2017-Oct-08 15:27N 33°21' W 118°20'0 0.0
2017-Oct-08 14:57N 33°21' W 118°20'0 0.0
2017-Oct-08 14:30N 33°21' W 118°20'0 0.0
2017-Oct-08 13:57N 33°21' W 118°20'0 0.0
2017-Oct-08 13:30N 33°21' W 118°20'0 0.0
2017-Oct-08 11:39N 33°21' W 118°20'0 0.0
2017-Oct-08 11:30N 33°21' W 118°20'0 0.0
2017-Oct-08 08:15N 33°21' W 118°20'0 0.0
2017-Oct-08 04:21N 33°21' W 118°20'0 0.0
2017-Oct-08 03:57N 33°21' W 118°20'0 0.0
2017-Oct-08 03:27N 33°21' W 118°20'0 0.0
2017-Oct-07 23:51N 33°21' W 118°20'  
Track history (hours):
 
Tides and Currents Weather Stations Pressure Air Temp Water Temp Dewpoint Dewpoint Depression Visibility Wind Speed Wind Dir Waves Ship Positions

Beso

Owner: Marsh, Richard C, Santa Barbara, CA. More information available from US FCC via Universal Licensing System and Coast Guard Vessel Documentation Center.

Last reported at 2017-Oct-17 18:04 UTC. Time now 2017-Oct-17 18:47 UTC.
Position N 34°24' W 119°42'.

Length 12 m.

Type: Pleasure craft. MMSI: 366948820.

Date/timePositionNaut miles runAvg speedWind from/ knotsBaromVisibWave heightAir tempDewpointWater temp
2017-Oct-17 18:04N 34°24' W 119°42'0 0.0
2017-Oct-17 16:36N 34°24' W 119°42'0 0.0
2017-Oct-17 12:12N 34°24' W 119°42'0 0.0
2017-Oct-16 14:41N 34°24' W 119°42'0 0.0
2017-Oct-16 10:41N 34°24' W 119°42'0 0.0
2017-Oct-16 07:32N 34°24' W 119°42'0 0.0
2017-Oct-16 06:08N 34°24' W 119°42'0 0.0
2017-Oct-16 03:41N 34°24' W 119°42'0 0.0
2017-Oct-16 03:26N 34°24' W 119°42'0 0.0
2017-Oct-15 22:09N 34°24' W 119°42'0 0.0
2017-Oct-15 21:48N 34°24' W 119°42'0 0.0
2017-Oct-15 18:56N 34°24' W 119°42'0 0.0
2017-Oct-15 18:09N 34°24' W 119°42'0 0.0
2017-Oct-15 15:57N 34°24' W 119°42'0 0.0
2017-Oct-15 03:36N 34°24' W 119°42'0 0.0
2017-Oct-15 03:21N 34°24' W 119°42'0 0.0
2017-Oct-14 19:13N 34°24' W 119°42'0 0.0
2017-Oct-14 16:18N 34°24' W 119°42'0 0.0
2017-Oct-13 10:41N 34°24' W 119°42'0 0.0
2017-Oct-13 08:10N 34°24' W 119°42'0 0.0
2017-Oct-13 08:00N 34°24' W 119°42'0 0.0
2017-Oct-13 07:21N 34°24' W 119°42'0 0.0
2017-Oct-13 06:52N 34°24' W 119°42'0 0.0
2017-Oct-13 06:15N 34°24' W 119°42'0 0.0
2017-Oct-13 05:54N 34°24' W 119°42'0 0.0
2017-Oct-13 05:17N 34°24' W 119°42'0 0.0
2017-Oct-13 04:48N 34°24' W 119°42'0 0.0
2017-Oct-12 08:57N 34°24' W 119°42'0 0.0
2017-Oct-12 05:28N 34°24' W 119°42'0 0.0
2017-Oct-12 04:58N 34°24' W 119°42'0 0.0
2017-Oct-12 03:09N 34°24' W 119°42'0 0.0
2017-Oct-12 03:00N 34°24' W 119°42'0 0.0
2017-Oct-12 00:57N 34°24' W 119°42'0 0.0
2017-Oct-11 17:57N 34°24' W 119°42'0 0.0
2017-Oct-11 17:30N 34°24' W 119°42'0 0.0
2017-Oct-10 14:42N 34°24' W 119°42'0 0.0
2017-Oct-10 10:16N 34°24' W 119°42'0 0.0
2017-Oct-10 05:45N 34°24' W 119°42'0 0.0
2017-Oct-10 03:42N 34°24' W 119°42'0 0.0
2017-Oct-10 03:12N 34°24' W 119°42'0 0.0
2017-Oct-10 00:17N 34°24' W 119°42'1 0.1
2017-Oct-09 17:07N 34°24' W 119°41'1 6.6
2017-Oct-09 16:55N 34°23' W 119°40'3 6.6
2017-Oct-09 16:30N 34°20' W 119°39'4 7.0
2017-Oct-09 15:56N 34°16' W 119°37'3 7.0
2017-Oct-09 15:27N 34°13' W 119°36'3 6.8
2017-Oct-09 14:59N 34°10' W 119°35'3 6.7
2017-Oct-09 14:30N 34°07' W 119°33'7 0.6
2017-Oct-09 02:17N 34°00' W 119°31'2 6.4
2017-Oct-09 01:58N 33°59' W 119°29'4 6.5
2017-Oct-09 01:24N 33°57' W 119°25'3 6.3
2017-Oct-09 00:56N 33°56' W 119°22'3 5.9
2017-Oct-09 00:30N 33°54' W 119°19'3 6.8
2017-Oct-09 00:00N 33°52' W 119°16'4 7.2
2017-Oct-08 23:24N 33°50' W 119°12'3 7.1
2017-Oct-08 22:59N 33°49' W 119°09'4 7.3
2017-Oct-08 22:30N 33°47' W 119°05'33 6.9
2017-Oct-08 17:44N 33°29' W 118°32'2 7.2
2017-Oct-08 17:29N 33°28' W 118°30'4 7.4
2017-Oct-08 17:00N 33°26' W 118°26'3 6.7
2017-Oct-08 16:30N 33°25' W 118°23'4 6.4
2017-Oct-08 15:49N 33°21' W 118°20'1 1.6
2017-Oct-08 15:27N 33°21' W 118°20'0 0.0
2017-Oct-08 14:57N 33°21' W 118°20'0 0.0
2017-Oct-08 14:30N 33°21' W 118°20'0 0.0
2017-Oct-08 13:57N 33°21' W 118°20'0 0.0
2017-Oct-08 13:30N 33°21' W 118°20'0 0.0
2017-Oct-08 11:39N 33°21' W 118°20'0 0.0
2017-Oct-08 11:30N 33°21' W 118°20'0 0.0
2017-Oct-08 08:15N 33°21' W 118°20'0 0.0
2017-Oct-08 04:21N 33°21' W 118°20'0 0.0
2017-Oct-08 03:57N 33°21' W 118°20'0 0.0
2017-Oct-08 03:27N 33°21' W 118°20'0 0.0
2017-Oct-07 23:51N 33°21' W 118°20'  

Dump ship's entire track history